Time;durP1;ratioP1;P1;durP2;ratioP2;P2;SDS_P1;SDS_P2;PMS_P1;PMS_P2;Temp;Humidity;BMP_temperature;BMP_pressure;BME280_temperature;BME280_humidity;BME280_pressure;Samples;Min_cycle;Max_cycle;Signal;HPM_P1;HPM_P2
2021/07/01 00:01:54;;;;;;;17.63;9.20;;;;;;;21.58;70.79;98949.38;129665;1092;113956;-65
2021/07/01 00:04:23;;;;;;;11.73;9.45;;;;;;;21.56;70.96;98951.68;129752;1093;22561;-65
2021/07/01 00:06:52;;;;;;;12.13;9.58;;;;;;;21.55;70.95;98942.55;129763;1093;24056;-65
2021/07/01 00:09:24;;;;;;;11.75;9.40;;;;;;;21.53;71.24;98942.89;129670;1093;113760;-65
2021/07/01 00:12:00;;;;;;;15.35;9.68;;;;;;;21.50;71.53;98940.80;129779;1093;22613;-65
2021/07/01 00:14:30;;;;;;;11.20;9.48;;;;;;;21.45;71.81;98921.65;129660;1092;114337;-65
2021/07/01 00:16:59;;;;;;;11.65;9.43;;;;;;;21.42;72.16;98922.33;129765;1093;22529;-65
2021/07/01 00:19:28;;;;;;;10.63;9.60;;;;;;;21.36;72.00;98911.80;129627;1092;114134;-65
2021/07/01 00:21:56;;;;;;;12.60;9.15;;;;;;;21.30;72.33;98900.14;129748;1093;22594;-65
2021/07/01 00:24:26;;;;;;;13.43;9.78;;;;;;;21.25;72.46;98900.36;129789;1092;23093;-65
2021/07/01 00:26:55;;;;;;;13.63;11.08;;;;;;;21.19;72.53;98896.20;129604;1092;113309;-65
2021/07/01 00:29:24;;;;;;;16.40;10.98;;;;;;;21.13;72.52;98883.68;129705;1093;22595;-65
2021/07/01 00:31:53;;;;;;;13.48;11.15;;;;;;;21.07;72.91;98887.81;129625;1092;114539;-65
2021/07/01 00:34:22;;;;;;;13.75;11.93;;;;;;;20.99;72.96;98884.00;129795;1092;22540;-64
2021/07/01 00:36:51;;;;;;;14.98;13.50;;;;;;;20.91;72.97;98879.38;129731;1092;22553;-64
2021/07/01 00:39:19;;;;;;;20.43;18.20;;;;;;;20.85;73.26;98872.42;129680;1093;114484;-64
2021/07/01 00:41:48;;;;;;;19.93;17.83;;;;;;;20.79;73.55;98869.05;129723;1093;22560;-64
2021/07/01 00:44:17;;;;;;;22.30;17.43;;;;;;;20.74;73.96;98874.81;129643;1092;114842;-64
2021/07/01 00:46:46;;;;;;;21.40;17.03;;;;;;;20.68;74.13;98865.09;129726;1093;23141;-64
2021/07/01 00:49:16;;;;;;;28.20;21.48;;;;;;;20.64;73.77;98852.27;129645;1092;115466;-64
2021/07/01 00:51:45;;;;;;;16.90;15.18;;;;;;;20.59;74.32;98850.54;129697;1093;22588;-64
2021/07/01 00:54:14;;;;;;;13.00;11.70;;;;;;;20.52;74.51;98843.92;129780;1093;22644;-64
2021/07/01 00:56:43;;;;;;;12.98;11.68;;;;;;;20.50;74.53;98855.33;129596;1093;115316;-64
2021/07/01 00:59:12;;;;;;;12.28;11.08;;;;;;;20.49;74.56;98850.94;129741;1092;23004;-64
2021/07/01 01:01:41;;;;;;;13.98;12.45;;;;;;;20.51;74.66;98845.06;129589;1093;114437;-64
2021/07/01 01:04:10;;;;;;;17.60;11.60;;;;;;;20.49;74.63;98844.63;129776;1093;22564;-64
2021/07/01 01:06:39;;;;;;;12.83;11.58;;;;;;;20.48;74.62;98865.95;129791;1092;22591;-64
2021/07/01 01:09:09;;;;;;;15.13;10.60;;;;;;;20.48;74.62;98865.95;129692;1092;114264;-65
2021/07/01 01:11:39;;;;;;;15.55;13.98;;;;;;;20.49;74.89;98870.31;129792;1092;22580;-64
2021/07/01 01:14:14;;;;;;;17.98;14.03;;;;;;;20.50;74.96;98862.81;129594;1092;115227;-64
2021/07/01 01:16:56;;;;;;;15.75;12.75;;;;;;;20.52;74.63;98849.45;129770;1093;22555;-64
2021/07/01 01:19:25;;;;;;;13.13;11.48;;;;;;;20.51;75.02;98858.91;129591;1093;114448;-64
2021/07/01 01:21:54;;;;;;;16.50;12.35;;;;;;;20.50;74.83;98857.28;129728;1093;22560;-64
2021/07/01 01:24:25;;;;;;;21.00;13.15;;;;;;;20.50;74.87;98855.33;129691;1093;22601;-64
2021/07/01 01:26:54;;;;;;;15.43;12.03;;;;;;;20.50;75.03;98855.33;129670;1093;114216;-64
2021/07/01 01:29:23;;;;;;;13.43;12.13;;;;;;;20.51;75.42;98845.88;129751;1092;22681;-64
2021/07/01 01:31:55;;;;;;;14.38;11.70;;;;;;;20.50;75.38;98838.72;129649;1091;114481;-64
2021/07/01 01:34:25;;;;;;;16.63;12.03;;;;;;;20.47;75.40;98839.42;129718;1093;22602;-64
2021/07/01 01:36:55;;;;;;;17.65;11.38;;;;;;;20.43;75.68;98825.45;126377;1093;22799;-64
2021/07/01 01:39:24;;;;;;;13.80;11.50;;;;;;;20.39;75.73;98818.97;129612;1092;113883;-64
2021/07/01 01:42:03;;;;;;;13.33;11.45;;;;;;;20.39;75.83;98809.86;129780;1093;22585;-64
2021/07/01 01:44:33;;;;;;;13.83;11.48;;;;;;;20.35;75.96;98809.69;129563;1093;114423;-64
2021/07/01 01:47:02;;;;;;;15.20;11.50;;;;;;;20.32;76.31;98809.58;129781;1093;22538;-64
2021/07/01 01:49:31;;;;;;;15.05;11.48;;;;;;;20.30;76.18;98801.62;129606;1093;114640;-64
2021/07/01 01:52:01;;;;;;;14.43;11.08;;;;;;;20.30;76.40;98801.62;129751;1093;22628;-64
2021/07/01 01:54:30;;;;;;;12.47;10.87;;;;;;;20.26;76.72;98797.09;129697;1092;23431;-64
2021/07/01 01:56:59;;;;;;;22.45;12.48;;;;;;;20.21;76.85;98798.10;129633;1093;114038;-63
2021/07/01 01:59:51;;;;;;;12.00;10.75;;;;;;;20.13;77.02;98788.75;129744;1093;22651;-64
2021/07/01 02:02:39;;;;;;;11.45;9.53;;;;;;;20.02;77.31;98790.31;129704;1093;114324;-63
2021/07/01 02:05:28;;;;;;;15.65;11.35;;;;;;;19.92;77.61;98785.17;129563;1093;22570;-63
2021/07/01 02:07:57;;;;;;;13.18;11.93;;;;;;;19.84;78.37;98772.23;129592;1093;114198;-63
2021/07/01 02:10:34;;;;;;;17.53;11.70;;;;;;;19.80;78.70;98782.34;129713;1093;23387;-63
2021/07/01 02:13:10;;;;;;;13.93;12.18;;;;;;;19.76;78.63;98776.67;129623;1093;114433;-63
2021/07/01 02:15:49;;;;;;;12.20;11.05;;;;;;;19.75;78.86;98768.74;129732;1093;23384;-63
2021/07/01 02:18:18;;;;;;;13.48;12.08;;;;;;;19.75;79.15;98763.22;129764;1093;23392;-63
2021/07/01 02:20:47;;;;;;;13.00;11.45;;;;;;;19.75;79.03;98763.22;129586;1093;114402;-63
2021/07/01 02:23:16;;;;;;;18.23;12.08;;;;;;;19.75;79.29;98760.45;129787;1093;22605;-63
2021/07/01 02:25:46;;;;;;;15.00;11.43;;;;;;;19.76;79.05;98762.07;129536;1093;114346;-63
2021/07/01 02:28:18;;;;;;;16.05;12.65;;;;;;;19.75;79.16;98758.50;129787;1093;22703;-64
2021/07/01 02:31:07;;;;;;;16.65;12.43;;;;;;;19.76;79.14;98759.31;129644;1092;113578;-62
2021/07/01 02:33:39;;;;;;;15.75;12.48;;;;;;;19.80;79.24;98759.42;129791;1093;22667;-63
2021/07/01 02:36:08;;;;;;;20.05;13.38;;;;;;;19.84;79.39;98754.84;129717;1093;22630;-63
2021/07/01 02:39:01;;;;;;;17.80;14.43;;;;;;;19.89;79.46;98777.58;129467;1092;114286;-64
2021/07/01 02:41:29;;;;;;;14.50;13.08;;;;;;;19.95;79.26;98775.40;129687;1093;22568;-64
2021/07/01 02:43:58;;;;;;;15.53;12.88;;;;;;;20.00;78.91;98781.55;129721;1092;113670;-64
2021/07/01 02:46:46;;;;;;;17.48;13.33;;;;;;;20.08;78.86;98786.17;126667;1093;25901;-63
2021/07/01 02:49:25;;;;;;;15.23;13.55;;;;;;;20.15;78.78;98788.41;129620;1092;116894;-64
2021/07/01 02:51:58;;;;;;;20.33;14.90;;;;;;;20.22;78.63;98796.95;129713;1093;22800;-63
2021/07/01 02:54:27;;;;;;;16.35;14.60;;;;;;;20.28;78.79;98803.91;129756;1093;22506;-64
2021/07/01 02:56:58;;;;;;;17.98;14.20;;;;;;;20.32;78.67;98804.86;129609;1092;115205;-64
2021/07/01 02:59:27;;;;;;;15.78;14.20;;;;;;;20.37;78.35;98806.62;129762;1092;23167;-64
2021/07/01 03:02:16;;;;;;;15.73;13.63;;;;;;;20.43;78.50;98824.64;129589;1093;114093;-64
2021/07/01 03:05:03;;;;;;;14.48;13.08;;;;;;;20.48;78.37;98832.74;129753;1092;22523;-64
2021/07/01 03:07:35;;;;;;;20.68;13.70;;;;;;;20.52;78.26;98830.89;129609;1092;114348;-64
2021/07/01 03:10:05;;;;;;;15.43;12.25;;;;;;;20.56;78.00;98834.61;129796;1093;23095;-63
2021/07/01 03:12:41;;;;;;;16.40;13.18;;;;;;;20.61;78.10;98847.43;129731;1092;22554;-63
2021/07/01 03:15:11;;;;;;;14.50;12.10;;;;;;;20.65;77.97;98851.92;129604;1092;114379;-61
2021/07/01 03:17:40;;;;;;;15.13;11.80;;;;;;;20.72;77.99;98859.69;129735;1093;23183;-63
2021/07/01 03:20:10;;;;;;;13.48;11.78;;;;;;;20.76;77.64;98866.98;129623;1093;114133;-64
2021/07/01 03:23:17;;;;;;;18.70;14.50;;;;;;;20.84;77.73;98879.11;129659;1093;23503;-63
2021/07/01 03:25:54;;;;;;;18.63;13.78;;;;;;;20.91;77.48;98886.88;129660;1092;113823;-64
2021/07/01 03:28:23;;;;;;;16.73;13.25;;;;;;;20.96;77.67;98897.71;129748;1091;23140;-64
2021/07/01 03:30:52;;;;;;;14.85;12.60;;;;;;;20.97;77.71;98900.14;129685;1092;23142;-63
2021/07/01 03:33:21;;;;;;;17.88;12.95;;;;;;;21.00;77.61;98905.00;129599;1093;113860;-64
2021/07/01 03:35:51;;;;;;;18.20;13.28;;;;;;;21.02;77.70;98922.09;129734;1093;23349;-64
2021/07/01 03:38:35;;;;;;;17.88;12.90;;;;;;;21.00;77.47;98913.31;129630;1093;114119;-64
2021/07/01 03:41:24;;;;;;;17.15;13.55;;;;;;;20.98;77.29;98921.16;129701;1093;22567;-64
2021/07/01 03:43:53;;;;;;;15.63;13.88;;;;;;;20.97;77.52;98922.30;129630;1093;114381;-64
2021/07/01 03:46:23;;;;;;;14.75;12.88;;;;;;;20.96;77.35;98920.68;129730;1093;22756;-64
2021/07/01 03:48:52;;;;;;;14.80;13.30;;;;;;;20.96;77.56;98920.68;129745;1093;22602;-64
2021/07/01 03:51:48;;;;;;;17.43;13.68;;;;;;;20.93;77.52;98926.89;129691;1091;22686;-64
2021/07/01 03:54:46;;;;;;;16.33;13.70;;;;;;;20.93;77.39;98921.36;129610;1092;22579;-63
2021/07/01 03:57:15;;;;;;;16.43;14.73;;;;;;;20.91;77.55;98923.69;129665;1093;114095;-64
2021/07/01 03:59:51;;;;;;;17.20;15.45;;;;;;;20.91;77.56;98920.10;129727;1092;22568;-64
2021/07/01 04:02:39;;;;;;;16.58;14.90;;;;;;;20.89;77.57;98914.91;129652;1093;114448;-64
2021/07/01 04:05:20;;;;;;;17.60;15.63;;;;;;;20.88;77.59;98916.05;129715;1093;22681;-64
2021/07/01 04:07:50;;;;;;;16.23;14.50;;;;;;;20.87;77.42;98910.84;129655;1093;114340;-64
2021/07/01 04:10:25;;;;;;;17.15;15.05;;;;;;;20.87;77.53;98916.39;129746;1092;23189;-64
2021/07/01 04:13:10;;;;;;;17.78;15.30;;;;;;;20.87;77.75;98924.70;129748;1093;22613;-64
2021/07/01 04:15:57;;;;;;;21.40;15.55;;;;;;;20.88;77.55;98918.81;129652;1093;114399;-64
2021/07/01 04:18:45;;;;;;;17.48;15.65;;;;;;;20.89;77.72;98916.86;129801;1092;22809;-64
2021/07/01 04:21:32;;;;;;;15.55;13.78;;;;;;;20.89;77.83;98920.44;129626;1093;114545;-64
2021/07/01 04:24:20;;;;;;;16.48;14.65;;;;;;;20.89;77.79;98917.67;129763;1092;22531;-64
2021/07/01 04:26:58;;;;;;;15.88;14.28;;;;;;;20.90;77.90;98901.86;126137;1093;115192;-64
2021/07/01 04:29:31;;;;;;;16.30;14.13;;;;;;;20.89;77.67;98901.05;125175;1093;26310;-63
2021/07/01 04:32:00;;;;;;;19.97;13.63;;;;;;;20.88;77.65;98896.66;125008;1093;114860;-63
2021/07/01 04:34:29;;;;;;;21.45;13.20;;;;;;;20.90;77.56;98901.86;124999;1093;22844;-63
2021/07/01 04:37:01;;;;;;;14.58;12.33;;;;;;;20.92;77.69;98908.66;124980;1093;22770;-63
2021/07/01 04:39:36;;;;;;;17.25;13.40;;;;;;;20.93;77.53;98921.36;129657;1092;113934;-64
2021/07/01 04:42:15;;;;;;;17.50;13.15;;;;;;;20.96;77.43;98928.18;129721;1092;22588;-64
2021/07/01 04:44:44;;;;;;;16.93;13.88;;;;;;;20.98;77.60;98928.65;129707;1092;114168;-64
2021/07/01 04:47:13;;;;;;;13.75;11.63;;;;;;;21.02;77.38;98926.83;129750;1092;23418;-64
2021/07/01 04:49:45;;;;;;;15.25;12.18;;;;;;;21.04;77.28;98938.38;129696;1092;114015;-64
2021/07/01 04:52:32;;;;;;;17.55;12.35;;;;;;;21.06;77.18;98942.41;129747;1093;22616;-64
2021/07/01 04:55:20;;;;;;;15.28;11.83;;;;;;;21.08;77.06;98953.14;129448;1093;22592;-64
2021/07/01 04:58:08;;;;;;;19.98;13.28;;;;;;;21.09;76.96;98946.45;125047;1093;114135;-62
2021/07/01 05:00:41;;;;;;;19.80;12.38;;;;;;;21.11;77.04;98955.23;125185;1093;23391;-63
2021/07/01 05:03:29;;;;;;;19.88;11.95;;;;;;;21.11;77.16;98935.84;125040;1093;114168;-63
2021/07/01 05:05:58;;;;;;;18.35;12.15;;;;;;;21.12;77.10;98935.51;129741;1092;23273;-64
2021/07/01 05:08:28;;;;;;;15.48;12.73;;;;;;;21.15;77.22;98951.45;129591;1093;114555;-63
2021/07/01 05:10:57;;;;;;;17.80;13.50;;;;;;;21.19;77.30;98948.84;129740;1093;23420;-64
2021/07/01 05:13:26;;;;;;;16.85;11.20;;;;;;;21.20;77.21;98953.23;129744;1092;22522;-63
2021/07/01 05:15:56;;;;;;;17.65;10.80;;;;;;;21.22;77.38;98955.64;129717;1093;114354;-63
2021/07/01 05:18:26;;;;;;;13.43;11.18;;;;;;;21.24;77.33;98959.69;129697;1093;22569;-64
2021/07/01 05:21:33;;;;;;;14.48;10.98;;;;;;;21.27;77.36;98959.02;129458;1092;114309;-63
2021/07/01 05:24:20;;;;;;;15.05;12.50;;;;;;;21.30;77.12;98951.98;129787;1093;22562;-64
2021/07/01 05:27:08;;;;;;;14.28;11.83;;;;;;;21.33;77.04;98962.39;125900;1093;114104;-63
2021/07/01 05:30:16;;;;;;;14.88;11.63;;;;;;;21.37;76.85;98950.25;129217;1092;22589;-64
2021/07/01 05:33:08;;;;;;;21.50;12.55;;;;;;;21.43;76.92;98945.31;129537;1092;114298;-64
2021/07/01 05:35:41;;;;;;;19.45;13.08;;;;;;;21.47;76.85;98949.83;129758;1093;23093;-64
2021/07/01 05:41:11;;;;;;;13.93;12.13;;;;;;;21.59;76.54;98951.81;125609;1091;22914;-64
2021/07/01 05:43:40;;;;;;;16.60;11.70;;;;;;;21.65;76.37;98953.19;125411;1090;22778;-63
2021/07/01 05:46:18;;;;;;;15.00;11.88;;;;;;;21.70;76.26;98960.48;125086;1093;113733;-64
2021/07/01 05:48:47;;;;;;;15.50;11.30;;;;;;;21.74;76.36;98958.64;125335;1093;22930;-64
2021/07/01 05:51:16;;;;;;;17.28;11.03;;;;;;;21.78;76.03;98962.35;125215;1092;114801;-64
2021/07/01 05:56:36;;;;;;;19.48;11.78;;;;;;;21.79;75.73;98964.75;129618;1092;114178;-62
2021/07/01 05:59:07;;;;;;;17.75;12.18;;;;;;;21.82;75.92;98968.80;129912;1093;22558;-64
2021/07/01 06:01:37;;;;;;;15.55;10.98;;;;;;;21.83;75.79;98973.20;130006;1092;22675;-64
2021/07/01 06:04:06;;;;;;;17.88;11.65;;;;;;;21.85;75.95;98970.89;129667;1093;113900;-68
2021/07/01 06:06:58;;;;;;;16.20;11.18;;;;;;;21.87;75.71;98974.13;130035;1093;22584;-68
2021/07/01 06:09:31;;;;;;;14.40;11.38;;;;;;;21.90;75.40;98965.13;129736;1092;114206;-67
2021/07/01 06:12:01;;;;;;;16.45;11.50;;;;;;;21.93;75.34;98958.86;129817;1092;23144;-68
2021/07/01 06:14:30;;;;;;;20.52;12.25;;;;;;;21.96;75.45;98965.69;129648;1093;115552;-68
2021/07/01 06:17:04;;;;;;;14.95;11.53;;;;;;;22.01;75.46;98959.94;129992;1092;22562;-69
2021/07/01 06:19:34;;;;;;;17.08;11.60;;;;;;;22.06;75.33;98949.44;129913;1093;23132;-68
2021/07/01 06:22:03;;;;;;;20.18;11.73;;;;;;;22.12;74.80;98959.13;129663;1093;114078;-68
2021/07/01 06:24:32;;;;;;;15.48;11.65;;;;;;;22.17;75.22;98947.80;129759;1091;22580;-68
2021/07/01 06:27:02;;;;;;;16.53;14.18;;;;;;;22.22;74.90;98961.41;129664;1092;113923;-69
2021/07/01 06:29:31;;;;;;;17.75;13.30;;;;;;;22.28;74.77;98959.23;129737;1093;22596;-69
2021/07/01 06:32:00;;;;;;;20.23;12.58;;;;;;;22.33;74.49;98956.22;129654;1092;114071;-68
2021/07/01 06:34:28;;;;;;;17.33;11.95;;;;;;;22.42;74.41;98958.85;129714;1093;22599;-67
2021/07/01 06:37:03;;;;;;;14.50;11.03;;;;;;;22.49;74.00;98961.86;129812;1093;22550;-65
2021/07/01 06:39:50;;;;;;;18.60;10.30;;;;;;;22.58;74.21;98959.75;129679;1091;113961;-64
2021/07/01 06:42:49;;;;;;;16.03;10.83;;;;;;;22.68;74.09;98961.21;129803;1092;22564;-64
2021/07/01 06:45:41;;;;;;;12.33;10.43;;;;;;;22.78;73.81;98960.77;129494;1092;114398;-64
2021/07/01 06:48:31;;;;;;;30.35;12.40;;;;;;;22.85;73.69;98952.63;129785;1092;22589;-64
2021/07/01 06:51:19;;;;;;;16.60;11.98;;;;;;;22.94;73.79;98960.83;129693;1092;115555;-64
2021/07/01 06:54:11;;;;;;;20.20;11.10;;;;;;;23.00;73.40;98949.09;129850;1093;22566;-64
2021/07/01 06:56:57;;;;;;;15.53;10.60;;;;;;;23.07;73.22;98954.05;129688;1093;114205;-64
2021/07/01 06:59:27;;;;;;;24.35;12.23;;;;;;;23.12;73.34;98951.00;129805;1093;22649;-64
2021/07/01 07:01:55;;;;;;;18.13;11.40;;;;;;;23.17;73.12;98946.00;129677;1092;114032;-63
2021/07/01 07:04:25;;;;;;;14.13;11.78;;;;;;;23.23;72.91;98949.31;129804;1092;22681;-64
2021/07/01 07:06:54;;;;;;;16.60;10.98;;;;;;;23.26;72.61;98927.17;129744;1093;23452;-64
2021/07/01 07:09:22;;;;;;;14.75;10.95;;;;;;;23.31;72.04;98936.42;129681;1093;113861;-64
2021/07/01 07:11:51;;;;;;;17.35;11.48;;;;;;;23.36;71.76;98936.17;129775;1092;22540;-64
2021/07/01 07:14:21;;;;;;;16.13;10.55;;;;;;;23.40;71.79;98934.27;129731;1093;115881;-64
2021/07/01 07:16:50;;;;;;;16.90;11.05;;;;;;;23.45;71.78;98937.61;129781;1093;22546;-64
2021/07/01 07:19:20;;;;;;;12.70;9.55;;;;;;;23.52;71.72;98939.78;129847;1093;22559;-64
2021/07/01 07:21:50;;;;;;;12.20;9.25;;;;;;;23.56;70.82;98937.91;129706;1093;113124;-64
2021/07/01 07:24:20;;;;;;;10.50;9.40;;;;;;;23.61;70.53;98932.09;129821;1093;22573;-64
2021/07/01 07:26:53;;;;;;;12.55;9.25;;;;;;;23.65;70.49;98923.84;129687;1093;113800;-64
2021/07/01 07:29:31;;;;;;;11.20;10.05;;;;;;;23.69;70.26;98930.28;129784;1093;22548;-64
2021/07/01 07:32:03;;;;;;;12.33;9.35;;;;;;;23.74;70.69;98930.02;129692;1093;115295;-64
2021/07/01 07:34:33;;;;;;;12.30;9.40;;;;;;;23.78;69.88;98917.82;129811;1093;22556;-64
2021/07/01 07:37:11;;;;;;;10.90;9.05;;;;;;;23.82;69.94;98920.67;129809;1093;22682;-64
2021/07/01 07:39:40;;;;;;;11.10;9.53;;;;;;;23.84;69.54;98927.49;129711;1092;113861;-64
2021/07/01 07:42:11;;;;;;;13.73;9.03;;;;;;;23.87;69.65;98932.34;129797;1093;22581;-64
2021/07/01 07:44:41;;;;;;;15.53;10.93;;;;;;;23.90;69.68;98919.69;129751;1092;113168;-64
2021/07/01 07:47:14;;;;;;;14.30;9.55;;;;;;;23.92;70.01;98920.95;129827;1092;22614;-64
2021/07/01 07:49:42;;;;;;;13.68;9.48;;;;;;;23.93;69.87;98917.00;129836;1093;23280;-64
2021/07/01 07:52:12;;;;;;;12.33;9.70;;;;;;;23.95;69.72;98905.48;129730;1092;113584;-64
2021/07/01 07:54:53;;;;;;;12.13;10.88;;;;;;;23.96;69.88;98904.31;129769;1094;23220;-64
2021/07/01 07:57:29;;;;;;;14.35;9.28;;;;;;;24.03;69.34;98901.71;129750;1093;114021;-64
2021/07/01 07:59:58;;;;;;;14.00;10.05;;;;;;;24.09;69.90;98900.27;129765;1092;23354;-64
2021/07/01 08:02:47;;;;;;;11.88;8.90;;;;;;;24.15;68.31;98898.80;129715;1093;114358;-64
2021/07/01 08:05:23;;;;;;;19.03;9.18;;;;;;;24.20;68.11;98897.72;129780;1093;22601;-64
2021/07/01 08:07:52;;;;;;;13.53;10.03;;;;;;;24.27;68.69;98897.90;129792;1092;22597;-64
2021/07/01 08:10:27;;;;;;;19.83;9.08;;;;;;;24.36;68.31;98908.84;129646;1093;113843;-64
2021/07/01 08:13:02;;;;;;;8.10;7.38;;;;;;;24.44;65.99;98900.27;129805;1093;22678;-65
2021/07/01 08:15:32;;;;;;;9.48;8.48;;;;;;;24.52;65.26;98906.81;129623;1093;113756;-64
2021/07/01 08:18:02;;;;;;;11.65;8.40;;;;;;;24.58;65.66;98906.14;129779;1093;23413;-64
2021/07/01 08:20:31;;;;;;;11.88;8.85;;;;;;;24.68;65.21;98905.55;129616;1093;114314;-64
2021/07/01 08:23:01;;;;;;;11.40;8.30;;;;;;;24.78;64.87;98897.80;129777;1093;22554;-64
2021/07/01 08:25:30;;;;;;;9.88;7.48;;;;;;;24.87;63.88;98895.58;129725;1092;22547;-62
2021/07/01 08:27:59;;;;;;;13.53;7.40;;;;;;;24.94;63.66;98893.78;129648;1092;113647;-62
2021/07/01 08:30:28;;;;;;;10.75;8.30;;;;;;;25.03;62.77;98887.95;129731;1092;22743;-62
2021/07/01 08:32:58;;;;;;;10.75;7.30;;;;;;;25.08;62.02;98882.09;129659;1093;115498;-62
2021/07/01 08:35:28;;;;;;;9.50;7.15;;;;;;;25.15;62.56;98881.40;129749;1093;22575;-61
2021/07/01 08:38:01;;;;;;;10.53;7.08;;;;;;;25.22;61.52;98884.33;129860;1093;22648;-62
2021/07/01 08:40:32;;;;;;;9.63;6.23;;;;;;;25.29;61.30;98885.25;129658;1093;113471;-62
2021/07/01 08:43:02;;;;;;;9.38;6.10;;;;;;;25.34;59.74;98890.53;129831;1093;22572;-62
2021/07/01 08:45:58;;;;;;;10.20;6.40;;;;;;;25.40;60.24;98891.01;129711;1093;113936;-62
2021/07/01 08:48:27;;;;;;;10.65;6.63;;;;;;;25.47;60.08;98887.55;129855;1093;22645;-62
2021/07/01 08:50:57;;;;;;;9.27;6.07;;;;;;;25.52;59.44;98885.27;129643;1092;114003;-62
2021/07/01 08:53:36;;;;;;;12.48;6.03;;;;;;;25.59;58.94;98888.16;129761;1092;22525;-62
2021/07/01 08:56:05;;;;;;;6.30;5.48;;;;;;;25.65;56.76;98886.71;129792;1093;22579;-62
2021/07/01 08:58:34;;;;;;;10.15;5.78;;;;;;;25.72;56.20;98883.22;129677;1092;113353;-62
2021/07/01 09:01:03;;;;;;;8.80;5.15;;;;;;;25.77;56.02;98893.27;129819;1093;22554;-62
2021/07/01 09:03:32;;;;;;;7.85;4.93;;;;;;;25.82;56.10;98892.95;129731;1092;113563;-62
2021/07/01 09:06:01;;;;;;;9.95;5.40;;;;;;;25.87;55.62;98884.24;129767;1093;22640;-62
2021/07/01 09:08:31;;;;;;;8.45;5.15;;;;;;;25.94;54.85;98878.78;129676;1093;114025;-62
2021/07/01 09:11:03;;;;;;;302.60;252.85;;;;;;;25.98;54.58;98883.22;129845;1093;22591;-63
2021/07/01 09:13:33;;;;;;;103.55;89.50;;;;;;;26.01;55.14;98881.66;129795;1093;22616;-63
2021/07/01 09:16:02;;;;;;;57.60;46.90;;;;;;;26.04;55.10;98886.50;129662;1092;113493;-62
2021/07/01 09:18:31;;;;;;;19.38;14.43;;;;;;;26.08;56.13;98880.98;129812;1093;22667;-62
2021/07/01 09:20:59;;;;;;;8.28;6.45;;;;;;;26.12;55.75;98888.20;129620;1093;114037;-61
2021/07/01 09:23:28;;;;;;;10.13;5.13;;;;;;;26.19;55.36;98879.14;129797;1092;22644;-61
2021/07/01 09:26:00;;;;;;;8.15;5.08;;;;;;;26.22;55.28;98870.02;129840;1092;22537;-61
2021/07/01 09:28:29;;;;;;;9.23;5.00;;;;;;;26.27;55.95;98875.25;129736;1092;114054;-62
2021/07/01 09:30:57;;;;;;;9.78;5.45;;;;;;;26.33;55.53;98882.16;129835;1093;23340;-62
2021/07/01 09:33:30;;;;;;;10.48;5.40;;;;;;;26.37;55.37;98877.44;129648;1093;113641;-62
2021/07/01 09:35:59;;;;;;;9.68;5.63;;;;;;;26.41;55.44;98881.06;129850;1093;23365;-62
2021/07/01 09:38:27;;;;;;;11.50;5.30;;;;;;;26.45;54.96;98881.11;129682;1092;113707;-62
2021/07/01 09:40:56;;;;;;;7.78;5.18;;;;;;;26.48;54.82;98874.77;129818;1092;23314;-62
2021/07/01 09:43:25;;;;;;;9.30;5.25;;;;;;;26.50;54.14;98872.41;129747;1093;22568;-62
2021/07/01 09:45:54;;;;;;;13.50;5.03;;;;;;;26.52;54.78;98864.45;129736;1092;113605;-60
2021/07/01 09:48:23;;;;;;;9.03;4.98;;;;;;;26.56;54.95;98868.08;129768;1093;23732;-60
2021/07/01 09:50:52;;;;;;;10.68;5.78;;;;;;;26.61;54.87;98867.75;129730;1093;113778;-60
2021/07/01 09:53:28;;;;;;;8.95;4.65;;;;;;;26.65;53.75;98857.42;129794;1093;23085;-60
2021/07/01 09:56:02;;;;;;;8.55;5.40;;;;;;;26.69;52.89;98852.69;129816;1092;22584;-60
2021/07/01 09:58:32;;;;;;;12.73;5.18;;;;;;;26.68;54.40;98856.67;129649;1092;113608;-60
2021/07/01 10:01:01;;;;;;;8.88;4.88;;;;;;;26.71;54.36;98853.89;129874;1093;22546;-60
2021/07/01 10:03:30;;;;;;;11.25;5.50;;;;;;;26.75;54.94;98849.16;129653;1093;114031;-60
2021/07/01 10:05:59;;;;;;;13.20;5.95;;;;;;;26.78;55.92;98850.39;129798;1092;23074;-60
2021/07/01 10:08:38;;;;;;;9.33;5.95;;;;;;;26.82;56.04;98839.25;129674;1092;114096;-60
2021/07/01 10:11:07;;;;;;;13.73;6.13;;;;;;;26.88;55.52;98837.70;129820;1093;22591;-60
2021/07/01 10:13:36;;;;;;;9.03;5.30;;;;;;;26.93;55.22;98840.16;129808;1092;23277;-60
2021/07/01 10:16:05;;;;;;;9.55;5.88;;;;;;;26.96;55.83;98834.65;129684;1093;115835;-60
2021/07/01 10:18:41;;;;;;;8.37;5.73;;;;;;;27.01;55.73;98836.27;129759;1092;22529;-60
2021/07/01 10:21:15;;;;;;;;;;;;;;;27.03;55.81;98833.90;129752;1092;113854;-60
2021/07/01 10:23:47;;;;;;;13.75;5.13;;;;;;;27.05;54.89;98825.94;129845;1093;21738;-60
2021/07/01 10:26:23;;;;;;;11.43;5.58;;;;;;;27.06;54.91;98822.76;129704;1093;114134;-59
2021/07/01 10:28:59;;;;;;;8.63;4.83;;;;;;;27.08;55.30;98822.38;129796;1092;23611;-60
2021/07/01 10:31:56;;;;;;;8.73;5.40;;;;;;;27.11;55.26;98824.41;129791;1093;23426;-60
2021/07/01 10:34:27;;;;;;;7.98;4.43;;;;;;;27.15;53.86;98827.22;129675;1093;114223;-60
2021/07/01 10:37:22;;;;;;;9.30;5.10;;;;;;;27.16;54.65;98818.44;129807;1093;22569;-60
2021/07/01 10:39:52;;;;;;;7.40;4.90;;;;;;;27.18;54.61;98818.06;129661;1092;114242;-60
2021/07/01 10:42:21;;;;;;;8.33;4.88;;;;;;;27.20;53.62;98824.08;129868;1092;22555;-60
2021/07/01 10:44:50;;;;;;;8.40;5.10;;;;;;;27.20;54.14;98813.69;129737;1093;114478;-60
2021/07/01 10:47:27;;;;;;;8.55;5.10;;;;;;;27.23;53.92;98818.52;129794;1093;22628;-60
2021/07/01 10:49:59;;;;;;;6.53;4.28;;;;;;;27.26;53.86;98817.76;129774;1092;22590;-60
2021/07/01 10:52:41;;;;;;;16.28;4.80;;;;;;;27.30;53.02;98810.17;129757;1093;113980;-60
2021/07/01 10:55:11;;;;;;;9.93;5.03;;;;;;;27.36;53.40;98807.84;129829;1093;22570;-54
2021/07/01 10:58:00;;;;;;;10.20;4.38;;;;;;;27.42;53.64;98804.27;129741;1093;114280;-60
2021/07/01 11:00:41;;;;;;;7.63;4.45;;;;;;;27.49;52.99;98809.14;129797;1093;22567;-63
2021/07/01 11:03:31;;;;;;;8.95;4.65;;;;;;;27.57;52.19;98812.81;129713;1093;114925;-60
2021/07/01 11:06:02;;;;;;;6.93;3.90;;;;;;;27.62;52.08;98809.66;129837;1093;22587;-60
2021/07/01 11:08:38;;;;;;;10.65;4.30;;;;;;;27.65;52.28;98806.09;129691;1093;114057;-60
2021/07/01 11:11:20;;;;;;;5.40;3.98;;;;;;;27.67;51.51;98807.31;129792;1093;22577;-61
2021/07/01 11:13:59;;;;;;;5.13;3.63;;;;;;;27.71;50.04;98804.52;129781;1092;22576;-59
2021/07/01 11:16:34;;;;;;;7.73;3.73;;;;;;;27.72;50.10;98795.73;129656;1093;114102;-60
2021/07/01 11:19:03;;;;;;;5.80;3.90;;;;;;;27.73;50.83;98800.14;129790;1093;22557;-63
2021/07/01 11:21:33;;;;;;;8.35;3.50;;;;;;;27.75;51.12;98805.34;129654;1092;113844;-60
2021/07/01 11:24:19;;;;;;;9.63;4.58;;;;;;;27.75;51.34;98808.95;129790;1092;22571;-61
2021/07/01 11:26:56;;;;;;;14.60;4.63;;;;;;;27.76;50.79;98813.36;129663;1093;113989;-60
2021/07/01 11:29:39;;;;;;;12.43;3.95;;;;;;;27.75;50.75;98816.55;129800;1092;22611;-60
2021/07/01 11:32:20;;;;;;;11.48;3.93;;;;;;;27.74;50.95;98812.94;129752;1093;22561;-60
2021/07/01 11:34:50;;;;;;;11.58;4.40;;;;;;;27.73;50.91;98813.33;129724;1093;113960;-60
2021/07/01 11:37:39;;;;;;;9.88;3.70;;;;;;;27.73;51.56;98813.33;129808;1092;22612;-60
2021/07/01 11:40:13;;;;;;;9.45;3.60;;;;;;;27.72;50.83;98809.73;129665;1093;113905;-60
2021/07/01 11:42:42;;;;;;;8.48;3.68;;;;;;;27.71;49.97;98810.91;129787;1093;22679;-60
2021/07/01 11:45:11;;;;;;;14.35;4.28;;;;;;;27.70;50.96;98805.73;129714;1093;114043;-60
2021/07/01 11:47:43;;;;;;;6.25;3.60;;;;;;;27.68;50.88;98808.12;129782;1092;22529;-60
2021/07/01 11:50:13;;;;;;;11.08;4.00;;;;;;;27.66;51.17;98813.30;129827;1093;23733;-60